createdAt,value
2022-11-25T00:01:21.892Z,26.37
2022-11-25T00:03:49.476Z,26.03
2022-11-25T00:06:18.939Z,24.80
2022-11-25T00:08:49.115Z,23.53
2022-11-25T00:11:17.082Z,20.98
2022-11-25T00:13:45.301Z,20.50
2022-11-25T00:16:15.063Z,23.30
2022-11-25T00:18:45.294Z,25.40
2022-11-25T00:21:15.007Z,26.63
2022-11-25T00:23:41.789Z,24.73
2022-11-25T00:26:11.329Z,27.53
2022-11-25T00:28:38.771Z,32.10
2022-11-25T00:31:26.507Z,29.30
2022-11-25T00:33:53.313Z,25.40
2022-11-25T00:36:28.913Z,20.43
2022-11-25T00:38:57.965Z,24.50
2022-11-25T00:41:24.854Z,21.37
2022-11-25T00:43:51.161Z,21.73
2022-11-25T00:46:17.723Z,24.90
2022-11-25T00:48:44.630Z,27.70
2022-11-25T00:51:11.251Z,25.20
2022-11-25T00:53:37.616Z,22.73
2022-11-25T00:56:04.439Z,24.63
2022-11-25T00:58:30.835Z,26.03
2022-11-25T01:01:01.929Z,25.77
2022-11-25T01:03:28.569Z,24.40
2022-11-25T01:05:54.971Z,23.73
2022-11-25T01:08:21.322Z,25.37
2022-11-25T01:10:47.879Z,34.93
2022-11-25T01:13:14.295Z,23.63
2022-11-25T01:15:40.590Z,16.97
2022-11-25T01:18:07.100Z,19.40
2022-11-25T01:20:33.388Z,22.37
2022-11-25T01:22:59.697Z,19.57
2022-11-25T01:25:26.190Z,21.17
2022-11-25T01:27:52.946Z,20.90
2022-11-25T01:30:19.295Z,24.30
2022-11-25T01:32:45.764Z,27.60
2022-11-25T01:35:12.636Z,20.40
2022-11-25T01:37:39.278Z,22.63
2022-11-25T01:40:06.416Z,17.73
2022-11-25T01:42:32.842Z,18.20
2022-11-25T01:45:38.062Z,21.13
2022-11-25T01:48:14.650Z,20.33
2022-11-25T01:50:42.351Z,19.93
2022-11-25T01:53:11.853Z,16.03
2022-11-25T01:55:43.316Z,19.93
2022-11-25T01:58:16.355Z,18.13
2022-11-25T02:00:43.388Z,16.17
2022-11-25T02:03:10.161Z,21.90
2022-11-25T02:05:46.313Z,17.80
2022-11-25T02:08:13.078Z,19.60
2022-11-25T02:10:39.558Z,17.27
2022-11-25T02:13:05.950Z,23.30
2022-11-25T02:15:34.297Z,20.63
2022-11-25T02:18:01.516Z,21.13
2022-11-25T02:20:28.424Z,21.63
2022-11-25T02:23:00.639Z,22.43
2022-11-25T02:25:31.081Z,22.03
2022-11-25T02:28:05.333Z,20.95
2022-11-25T02:30:32.892Z,25.50
2022-11-25T02:33:00.745Z,21.73
2022-11-25T02:35:52.704Z,19.67
2022-11-25T02:38:29.763Z,21.97
2022-11-25T02:41:05.676Z,18.70
2022-11-25T02:43:32.407Z,18.60
2022-11-25T02:46:02.172Z,22.23
2022-11-25T02:49:00.923Z,18.45
2022-11-25T02:51:19.951Z,20.87
2022-11-25T02:53:46.498Z,16.97
2022-11-25T02:56:15.055Z,16.63
2022-11-25T02:58:41.890Z,18.53
2022-11-25T03:01:09.441Z,16.00
2022-11-25T03:03:36.875Z,20.67
2022-11-25T03:06:03.531Z,15.03
2022-11-25T03:08:29.964Z,17.47
2022-11-25T03:10:56.477Z,16.47
2022-11-25T03:13:23.139Z,15.53
2022-11-25T03:15:49.463Z,15.43
2022-11-25T03:18:15.910Z,16.23
2022-11-25T03:20:42.429Z,16.67
2022-11-25T03:23:08.875Z,12.43
2022-11-25T03:25:36.400Z,16.23
2022-11-25T03:28:03.735Z,16.47
2022-11-25T03:30:31.412Z,16.93
2022-11-25T03:32:57.880Z,17.40
2022-11-25T03:35:24.480Z,13.00
2022-11-25T03:37:51.069Z,13.07
2022-11-25T03:40:17.770Z,16.20
2022-11-25T03:42:44.258Z,16.67
2022-11-25T03:45:12.710Z,12.47
2022-11-25T03:47:40.649Z,13.87
2022-11-25T03:50:07.811Z,14.77
2022-11-25T03:52:34.661Z,14.93
2022-11-25T03:55:01.030Z,12.63
2022-11-25T03:57:27.742Z,16.93
2022-11-25T03:59:54.332Z,16.40
2022-11-25T04:02:20.692Z,15.57
2022-11-25T04:04:47.063Z,15.17
2022-11-25T04:07:13.643Z,14.43
2022-11-25T04:09:40.062Z,18.83
2022-11-25T04:12:06.555Z,14.77
2022-11-25T04:14:33.101Z,20.97
2022-11-25T04:16:59.792Z,19.07
2022-11-25T04:19:26.372Z,18.77
2022-11-25T04:21:52.909Z,16.97
2022-11-25T04:24:19.622Z,16.37
2022-11-25T04:26:46.190Z,22.90
2022-11-25T04:29:12.905Z,20.37
2022-11-25T04:31:39.315Z,19.63
2022-11-25T04:34:05.626Z,17.30
2022-11-25T04:36:31.972Z,16.27
2022-11-25T04:38:58.589Z,17.50
2022-11-25T04:41:24.905Z,21.37
2022-11-25T04:43:51.204Z,17.73
2022-11-25T04:46:20.887Z,21.27
2022-11-25T04:48:48.665Z,14.70
2022-11-25T04:51:14.985Z,20.30
2022-11-25T04:53:41.403Z,20.50
2022-11-25T04:56:07.857Z,20.10
2022-11-25T04:58:34.186Z,19.43
2022-11-25T05:01:00.810Z,19.53
2022-11-25T05:03:27.384Z,19.40
2022-11-25T05:05:53.881Z,20.47
2022-11-25T05:08:20.598Z,22.43
2022-11-25T05:10:47.009Z,21.53
2022-11-25T05:13:13.738Z,21.70
2022-11-25T05:15:40.221Z,18.23
2022-11-25T05:18:06.688Z,17.00
2022-11-25T05:20:35.493Z,21.53
2022-11-25T05:23:01.796Z,21.97
2022-11-25T05:25:28.124Z,22.13
2022-11-25T05:27:54.475Z,19.73
2022-11-25T05:30:20.775Z,20.17
2022-11-25T05:32:47.109Z,14.63
2022-11-25T05:35:13.563Z,15.97
2022-11-25T05:37:39.904Z,19.10
2022-11-25T05:40:06.987Z,17.60
2022-11-25T05:42:33.349Z,16.63
2022-11-25T05:44:59.674Z,19.13
2022-11-25T05:47:25.982Z,22.90
2022-11-25T05:49:52.350Z,21.87
2022-11-25T05:52:18.847Z,21.00
2022-11-25T05:54:45.235Z,22.37
2022-11-25T05:57:11.693Z,19.70
2022-11-25T05:59:38.299Z,18.37
2022-11-25T06:02:04.838Z,19.40
2022-11-25T06:04:31.351Z,20.37
2022-11-25T06:06:57.697Z,15.90
2022-11-25T06:09:24.039Z,18.20
2022-11-25T06:11:51.167Z,21.60
2022-11-25T06:14:17.810Z,21.47
2022-11-25T06:16:44.228Z,21.20
2022-11-25T06:19:10.579Z,19.87
2022-11-25T06:21:37.244Z,16.73
2022-11-25T06:24:04.223Z,15.90
2022-11-25T06:26:30.669Z,19.33
2022-11-25T06:28:57.101Z,14.57
2022-11-25T06:31:25.539Z,20.10
2022-11-25T06:33:54.635Z,19.13
2022-11-25T06:36:22.187Z,20.53
2022-11-25T06:38:51.734Z,22.57
2022-11-25T06:41:22.270Z,18.43
2022-11-25T06:43:48.792Z,20.98
2022-11-25T06:46:24.127Z,20.20
2022-11-25T06:48:52.027Z,20.33
2022-11-25T06:51:18.564Z,20.77
2022-11-25T06:53:45.224Z,27.07
2022-11-25T06:56:15.168Z,22.33
2022-11-25T06:58:42.771Z,25.77
2022-11-25T07:01:15.536Z,23.07
2022-11-25T07:03:43.776Z,21.70
2022-11-25T07:06:12.747Z,22.63
2022-11-25T07:08:39.529Z,20.03
2022-11-25T07:11:16.206Z,21.87
2022-11-25T07:13:42.759Z,25.33
2022-11-25T07:16:11.577Z,24.97
2022-11-25T07:18:39.242Z,25.87
2022-11-25T07:21:11.568Z,27.70
2022-11-25T07:23:39.057Z,25.00
2022-11-25T07:26:08.131Z,26.23
2022-11-25T07:28:35.734Z,21.53
2022-11-25T07:31:27.180Z,24.60
2022-11-25T07:34:06.313Z,27.83
2022-11-25T07:36:34.721Z,27.60
2022-11-25T07:39:06.886Z,24.73
2022-11-25T07:41:33.534Z,21.57
2022-11-25T07:44:04.436Z,24.40
2022-11-25T07:46:36.857Z,27.50
2022-11-25T07:49:07.255Z,23.40
2022-11-25T07:51:34.953Z,20.60
2022-11-25T07:54:05.047Z,24.17
2022-11-25T07:56:33.102Z,21.98
2022-11-25T07:58:59.560Z,21.33
2022-11-25T08:01:26.139Z,22.50
2022-11-25T08:03:53.035Z,20.40
2022-11-25T08:06:22.114Z,21.00
2022-11-25T08:08:49.706Z,25.97
2022-11-25T08:11:18.993Z,21.03
2022-11-25T08:13:45.644Z,19.73
2022-11-25T08:16:13.980Z,19.40
2022-11-25T08:18:40.600Z,21.17
2022-11-25T08:21:09.652Z,16.53
2022-11-25T08:23:39.695Z,21.65
2022-11-25T08:26:12.546Z,19.92
2022-11-25T08:28:40.751Z,17.23
2022-11-25T08:31:10.022Z,21.25
2022-11-25T08:33:37.743Z,18.67
2022-11-25T08:36:05.030Z,18.65
2022-11-25T08:38:32.038Z,18.53
2022-11-25T08:40:59.134Z,17.53
2022-11-25T08:43:29.502Z,20.58
2022-11-25T08:45:56.368Z,22.77
2022-11-25T08:48:22.694Z,25.83
2022-11-25T08:50:54.267Z,27.63
2022-11-25T08:53:21.495Z,20.57
2022-11-25T08:55:48.274Z,22.13
2022-11-25T08:58:14.721Z,26.50
2022-11-25T09:00:43.164Z,24.90
2022-11-25T09:03:10.658Z,26.03
2022-11-25T09:05:42.118Z,22.50
2022-11-25T09:08:09.887Z,23.00
2022-11-25T09:10:37.698Z,24.37
2022-11-25T09:13:05.128Z,22.97
2022-11-25T09:15:32.713Z,20.17
2022-11-25T09:18:02.029Z,23.77
2022-11-25T09:20:28.837Z,22.20
2022-11-25T09:22:55.418Z,26.58
2022-11-25T09:25:22.661Z,18.50
2022-11-25T09:27:49.168Z,18.75
2022-11-25T09:30:15.940Z,21.92
2022-11-25T09:32:43.189Z,21.13
2022-11-25T09:35:10.231Z,20.27
2022-11-25T09:37:36.591Z,16.15
2022-11-25T09:40:03.137Z,14.45
2022-11-25T09:42:51.423Z,15.40
2022-11-25T09:45:25.537Z,19.10
2022-11-25T09:48:05.495Z,14.93
2022-11-25T09:50:56.887Z,14.82
2022-11-25T09:53:41.805Z,17.90
2022-11-25T09:56:49.709Z,23.25
2022-11-25T09:59:24.280Z,18.83
2022-11-25T10:01:55.984Z,23.30
2022-11-25T10:04:46.425Z,20.08
2022-11-25T10:07:28.072Z,38.15
2022-11-25T10:09:55.930Z,17.38
2022-11-25T10:12:30.219Z,13.70
2022-11-25T10:15:23.513Z,13.68
2022-11-25T10:17:53.122Z,13.95
2022-11-25T10:20:23.707Z,11.48
2022-11-25T10:23:15.250Z,13.63
2022-11-25T10:25:46.168Z,11.68
2022-11-25T10:30:50.910Z,15.27
2022-11-25T10:33:32.353Z,9.63
2022-11-25T10:36:12.943Z,13.40
2022-11-25T10:38:59.267Z,13.90
2022-11-25T10:41:29.700Z,15.07
2022-11-25T10:43:56.333Z,10.90
2022-11-25T10:47:12.789Z,9.80
2022-11-25T10:49:59.566Z,15.15
2022-11-25T10:52:29.546Z,10.73
2022-11-25T10:54:58.092Z,12.17
2022-11-25T10:57:29.644Z,11.07
2022-11-25T10:59:58.652Z,10.95
2022-11-25T11:02:34.819Z,12.63
2022-11-25T11:05:10.441Z,10.57
2022-11-25T11:07:40.629Z,11.52
2022-11-25T11:10:21.930Z,12.35
2022-11-25T11:13:00.576Z,15.73
2022-11-25T11:15:29.794Z,14.23
2022-11-25T11:17:57.981Z,13.68
2022-11-25T11:20:27.172Z,11.85
2022-11-25T11:23:07.021Z,16.20
2022-11-25T11:25:37.378Z,11.25
2022-11-25T11:28:35.447Z,12.27
2022-11-25T11:31:19.966Z,12.40
2022-11-25T11:34:10.688Z,11.40
2022-11-25T11:37:00.083Z,11.57
2022-11-25T11:40:06.437Z,9.98
2022-11-25T11:42:44.539Z,15.48
2022-11-25T11:45:25.846Z,10.38
2022-11-25T11:48:20.495Z,13.95
2022-11-25T11:51:07.633Z,10.48
2022-11-25T11:53:52.201Z,13.20
2022-11-25T11:56:54.830Z,12.93
2022-11-25T11:59:47.834Z,12.05
2022-11-25T12:02:43.342Z,15.38
2022-11-25T12:05:09.628Z,10.00
2022-11-25T12:07:54.990Z,12.90
2022-11-25T12:10:35.676Z,16.05
2022-11-25T12:13:18.845Z,16.15
2022-11-25T12:16:08.940Z,17.33
2022-11-25T12:18:47.598Z,13.33
2022-11-25T12:21:41.597Z,13.85
2022-11-25T12:24:30.035Z,20.50
2022-11-25T12:27:08.846Z,15.90
2022-11-25T12:29:47.143Z,19.77
2022-11-25T12:32:51.992Z,19.27
2022-11-25T12:35:18.940Z,21.15
2022-11-25T12:38:21.894Z,17.48
2022-11-25T12:40:59.635Z,15.43
2022-11-25T12:43:50.772Z,16.08
2022-11-25T12:46:24.358Z,19.30
2022-11-25T12:48:53.474Z,22.15
2022-11-25T12:51:31.255Z,22.60
2022-11-25T12:54:17.626Z,18.02
2022-11-25T12:57:05.711Z,20.05
2022-11-25T12:59:46.292Z,20.65
2022-11-25T13:02:36.829Z,18.83
2022-11-25T13:05:40.244Z,21.23
2022-11-25T13:08:22.289Z,18.33
2022-11-25T13:11:23.273Z,18.50
2022-11-25T13:13:53.185Z,18.45
2022-11-25T13:16:21.692Z,20.75
2022-11-25T13:18:49.672Z,17.27
2022-11-25T13:21:21.162Z,19.50
2022-11-25T13:23:50.472Z,20.27
2022-11-25T13:26:28.878Z,16.50
2022-11-25T13:29:15.472Z,17.10
2022-11-25T13:32:07.507Z,16.58
2022-11-25T13:34:37.110Z,13.77
2022-11-25T13:37:33.552Z,13.93
2022-11-25T13:40:36.106Z,17.27
2022-11-25T13:43:02.814Z,20.38
2022-11-25T13:45:42.239Z,16.25
2022-11-25T13:48:24.527Z,19.50
2022-11-25T13:51:10.600Z,16.75
2022-11-25T13:53:38.023Z,18.70
2022-11-25T13:56:31.210Z,19.33
2022-11-25T13:59:09.987Z,21.15
2022-11-25T14:01:40.422Z,16.75
2022-11-25T14:04:14.275Z,22.60
2022-11-25T14:07:06.277Z,20.90
2022-11-25T14:09:48.405Z,19.90
2022-11-25T14:12:45.843Z,26.48
2022-11-25T14:15:47.902Z,20.15
2022-11-25T14:24:54.634Z,16.75
2022-11-25T14:27:28.527Z,19.38
2022-11-25T14:30:05.723Z,17.88
2022-11-25T14:32:42.526Z,12.57
2022-11-25T14:35:15.571Z,14.30
2022-11-25T14:38:11.459Z,18.30
2022-11-25T14:40:57.910Z,14.27
2022-11-25T14:43:25.893Z,14.35
2022-11-25T14:46:21.736Z,19.45
2022-11-25T14:49:00.207Z,13.30
2022-11-25T14:51:37.872Z,14.70
2022-11-25T14:54:08.224Z,13.93
2022-11-25T14:56:36.412Z,12.50
2022-11-25T14:59:03.301Z,13.48
2022-11-25T15:01:35.170Z,20.40
2022-11-25T15:04:08.014Z,20.02
2022-11-25T15:06:42.941Z,18.60
2022-11-25T15:09:40.651Z,28.90
2022-11-25T15:12:14.290Z,19.45
2022-11-25T15:14:43.690Z,16.38
2022-11-25T15:17:30.787Z,13.88
2022-11-25T15:20:04.457Z,16.58
2022-11-25T15:22:30.914Z,13.98
2022-11-25T15:25:09.212Z,14.65
2022-11-25T15:27:44.232Z,15.73
2022-11-25T15:30:28.832Z,14.15
2022-11-25T15:32:57.067Z,16.38
2022-11-25T15:35:26.107Z,12.43
2022-11-25T15:37:52.619Z,15.90
2022-11-25T15:40:37.439Z,17.95
2022-11-25T15:43:22.869Z,11.85
2022-11-25T15:45:51.822Z,12.57
2022-11-25T15:48:37.333Z,20.40
2022-11-25T15:51:14.066Z,18.55
2022-11-25T15:53:42.847Z,19.98
2022-11-25T15:56:13.125Z,24.27
2022-11-25T15:58:42.803Z,19.70
2022-11-25T16:01:15.307Z,18.67
2022-11-25T16:03:44.858Z,19.88
2022-11-25T16:06:21.196Z,21.48
2022-11-25T16:08:56.073Z,23.02
2022-11-25T16:11:24.734Z,24.15
2022-11-25T16:13:55.102Z,19.15
2022-11-25T16:16:29.995Z,20.75
2022-11-25T16:19:02.329Z,22.83
2022-11-25T16:21:30.405Z,23.40
2022-11-25T16:24:12.827Z,17.77
2022-11-25T16:27:00.019Z,20.88
2022-11-25T16:29:31.791Z,22.52
2022-11-25T16:31:59.721Z,19.27
2022-11-25T16:34:26.265Z,17.63
2022-11-25T16:36:53.515Z,19.17
2022-11-25T16:39:20.093Z,16.25
2022-11-25T16:41:56.655Z,16.13
2022-11-25T16:44:25.415Z,16.30
2022-11-25T16:46:52.139Z,16.33
2022-11-25T16:49:20.092Z,20.38
2022-11-25T16:51:46.514Z,18.80
2022-11-25T16:54:12.993Z,14.88
2022-11-25T16:56:42.958Z,17.40
2022-11-25T16:59:29.149Z,18.43
2022-11-25T17:01:56.195Z,20.13
2022-11-25T17:04:22.667Z,18.75
2022-11-25T17:07:09.824Z,22.75
2022-11-25T17:09:36.724Z,21.52
2022-11-25T17:12:04.995Z,20.00
2022-11-25T17:14:34.556Z,20.70
2022-11-25T17:17:03.441Z,26.67
2022-11-25T17:19:30.334Z,26.63
2022-11-25T17:21:57.080Z,49.70
2022-11-25T17:24:25.129Z,38.38
2022-11-25T17:27:04.797Z,35.45
2022-11-25T17:29:41.271Z,30.25
2022-11-25T17:32:12.761Z,24.85
2022-11-25T17:34:39.831Z,22.35
2022-11-25T17:37:13.583Z,24.38
2022-11-25T17:39:40.099Z,22.30
2022-11-25T17:42:06.680Z,22.85
2022-11-25T17:44:33.265Z,21.95
2022-11-25T17:46:59.694Z,20.50
2022-11-25T17:49:26.066Z,26.55
2022-11-25T17:51:53.549Z,22.25
2022-11-25T17:54:19.873Z,24.50
2022-11-25T17:56:52.169Z,21.40
2022-11-25T17:59:26.593Z,20.65
2022-11-25T18:01:53.604Z,19.63
2022-11-25T18:04:25.691Z,24.17
2022-11-25T18:06:53.074Z,22.15
2022-11-25T18:09:22.554Z,19.92
2022-11-25T18:11:56.867Z,19.77
2022-11-25T18:14:35.241Z,25.65
2022-11-25T18:17:04.816Z,27.92
2022-11-25T18:19:32.560Z,34.58
2022-11-25T18:22:14.661Z,21.40
2022-11-25T18:24:41.563Z,27.73
2022-11-25T18:27:20.485Z,27.80
2022-11-25T18:29:48.760Z,21.00
2022-11-25T18:32:15.116Z,34.25
2022-11-25T18:34:41.566Z,38.15
2022-11-25T18:37:11.814Z,43.15
2022-11-25T18:39:39.041Z,44.45
2022-11-25T18:42:07.077Z,43.35
2022-11-25T18:44:35.826Z,35.92
2022-11-25T18:47:02.251Z,45.03
2022-11-25T18:49:28.714Z,42.78
2022-11-25T18:51:55.236Z,34.58
2022-11-25T18:54:21.674Z,42.55
2022-11-25T18:56:51.395Z,33.58
2022-11-25T18:59:25.031Z,36.40
2022-11-25T19:01:51.517Z,40.28
2022-11-25T19:04:20.981Z,35.55
2022-11-25T19:06:47.729Z,39.10
2022-11-25T19:09:14.245Z,43.92
2022-11-25T19:11:49.966Z,34.40
2022-11-25T19:14:29.499Z,39.92
2022-11-25T19:17:01.759Z,41.60
2022-11-25T19:19:28.424Z,30.67
2022-11-25T19:21:54.788Z,31.48
2022-11-25T19:24:21.238Z,31.05
2022-11-25T19:26:51.248Z,35.22
2022-11-25T19:29:27.284Z,38.30
2022-11-25T19:32:00.797Z,32.78
2022-11-25T19:34:33.534Z,39.47
2022-11-25T19:37:00.272Z,46.88
2022-11-25T19:39:27.895Z,41.60
2022-11-25T19:41:58.143Z,38.95
2022-11-25T19:44:24.603Z,34.75
2022-11-25T19:47:14.419Z,35.70
2022-11-25T19:49:41.743Z,39.45
2022-11-25T19:52:15.490Z,38.80
2022-11-25T19:54:41.973Z,38.67
2022-11-25T19:57:16.498Z,32.08
2022-11-25T19:59:44.233Z,30.10
2022-11-25T20:02:14.707Z,29.73
2022-11-25T20:04:42.726Z,23.35
2022-11-25T20:07:17.413Z,27.13
2022-11-25T20:09:44.144Z,30.67
2022-11-25T20:12:24.258Z,37.08
2022-11-25T20:14:51.605Z,32.67
2022-11-25T20:17:23.417Z,33.53
2022-11-25T20:19:51.497Z,25.10
2022-11-25T20:22:25.239Z,29.85
2022-11-25T20:24:52.887Z,27.25
2022-11-25T20:27:21.010Z,30.65
2022-11-25T20:29:48.179Z,32.75
2022-11-25T20:32:21.304Z,36.83
2022-11-25T20:34:48.168Z,31.48
2022-11-25T20:37:16.265Z,30.20
2022-11-25T20:39:44.111Z,26.95
2022-11-25T20:42:12.360Z,36.25
2022-11-25T20:44:39.145Z,31.92
2022-11-25T20:47:13.408Z,27.50
2022-11-25T20:49:44.281Z,33.50
2022-11-25T20:54:58.181Z,32.33
2022-11-25T20:57:25.644Z,31.40
2022-11-25T20:59:51.978Z,37.42
2022-11-25T21:02:18.591Z,29.90
2022-11-25T21:04:45.046Z,38.72
2022-11-25T21:07:16.394Z,32.53
2022-11-25T21:09:43.591Z,35.28
2022-11-25T21:12:19.580Z,28.58
2022-11-25T21:14:47.718Z,32.30
2022-11-25T21:17:14.368Z,32.53
2022-11-25T21:19:40.762Z,28.83
2022-11-25T21:22:10.485Z,30.35
2022-11-25T21:24:40.859Z,33.85
2022-11-25T21:27:14.462Z,27.95
2022-11-25T21:29:43.477Z,34.17
2022-11-25T21:32:26.387Z,33.78
2022-11-25T21:34:54.747Z,38.58
2022-11-25T21:37:30.895Z,34.42
2022-11-25T21:39:58.357Z,36.95
2022-11-25T21:42:25.480Z,32.72
2022-11-25T21:44:52.536Z,34.80
2022-11-25T21:47:24.240Z,33.70
2022-11-25T21:49:52.461Z,42.15
2022-11-25T21:52:19.318Z,36.22
2022-11-25T21:54:45.916Z,30.95
2022-11-25T21:57:23.001Z,26.38
2022-11-25T21:59:49.464Z,26.85
2022-11-25T22:02:18.504Z,21.60
2022-11-25T22:04:46.034Z,31.52
2022-11-25T22:07:12.406Z,24.55
2022-11-25T22:09:40.386Z,29.25
2022-11-25T22:12:17.786Z,22.25
2022-11-25T22:14:44.431Z,24.35
2022-11-25T22:17:17.119Z,29.40
2022-11-25T22:19:45.146Z,31.80
2022-11-25T22:22:16.645Z,26.27
2022-11-25T22:24:45.370Z,25.73
2022-11-25T22:27:25.704Z,34.45
2022-11-25T22:29:52.819Z,26.88
2022-11-25T22:32:19.171Z,27.67
2022-11-25T22:34:45.988Z,25.00
2022-11-25T22:37:23.254Z,23.88
2022-11-25T22:39:50.098Z,29.70
2022-11-25T22:42:37.453Z,27.65
2022-11-25T22:45:07.948Z,31.10
2022-11-25T22:47:45.602Z,27.13
2022-11-25T22:50:29.052Z,32.83
2022-11-25T22:52:56.104Z,33.33
2022-11-25T22:55:28.652Z,23.52
2022-11-25T22:57:57.220Z,27.10
2022-11-25T23:00:27.858Z,27.48
2022-11-25T23:02:56.812Z,25.25
2022-11-25T23:05:33.084Z,30.27
2022-11-25T23:08:09.939Z,23.98
2022-11-25T23:10:36.407Z,29.90
2022-11-25T23:13:02.769Z,24.23
2022-11-25T23:15:31.945Z,24.48
2022-11-25T23:18:00.861Z,33.47
2022-11-25T23:20:37.976Z,22.85
2022-11-25T23:23:20.379Z,25.10
2022-11-25T23:25:47.743Z,30.80
2022-11-25T23:28:14.860Z,30.23
2022-11-25T23:30:47.030Z,27.58
2022-11-25T23:33:39.673Z,33.00
2022-11-25T23:36:18.177Z,34.80
2022-11-25T23:38:49.433Z,28.42
2022-11-25T23:41:26.962Z,30.25
2022-11-25T23:43:53.624Z,29.00
2022-11-25T23:46:23.783Z,28.27
2022-11-25T23:48:57.177Z,26.13
2022-11-25T23:51:25.091Z,33.15
2022-11-25T23:53:54.666Z,27.65
2022-11-25T23:56:21.488Z,32.80
2022-11-25T23:58:47.966Z,31.70
